createdAt,value
2019-04-27T00:00:10.417Z,20.05
2019-04-27T00:02:39.347Z,18.90
2019-04-27T00:05:10.995Z,18.60
2019-04-27T00:07:43.928Z,19.02
2019-04-27T00:10:15.607Z,19.17
2019-04-27T00:12:42.967Z,19.55
2019-04-27T00:15:13.196Z,20.20
2019-04-27T00:17:59.971Z,21.25
2019-04-27T00:20:40.891Z,19.67
2019-04-27T00:23:09.813Z,20.20
2019-04-27T00:25:37.114Z,18.77
2019-04-27T00:28:05.461Z,18.12
2019-04-27T00:30:33.338Z,19.10
2019-04-27T00:33:03.042Z,18.35
2019-04-27T00:35:34.964Z,19.02
2019-04-27T00:38:13.158Z,17.42
2019-04-27T00:40:50.847Z,18.82
2019-04-27T00:43:18.135Z,18.12
2019-04-27T00:45:45.467Z,18.70
2019-04-27T00:48:13.466Z,18.60
2019-04-27T00:50:40.786Z,17.60
2019-04-27T00:53:08.077Z,19.37
2019-04-27T00:55:37.041Z,19.00
2019-04-27T00:58:13.031Z,18.10
2019-04-27T01:00:44.709Z,19.15
2019-04-27T01:03:16.207Z,19.23
2019-04-27T01:05:43.501Z,17.87
2019-04-27T01:08:10.808Z,19.45
2019-04-27T01:10:38.125Z,18.85
2019-04-27T01:13:05.695Z,17.35
2019-04-27T01:15:34.004Z,18.98
2019-04-27T01:18:11.452Z,18.42
2019-04-27T01:20:30.399Z,19.50
2019-04-27T01:22:59.345Z,20.15
2019-04-27T01:25:28.989Z,18.48
2019-04-27T01:28:14.205Z,18.62
2019-04-27T01:30:43.142Z,19.40
2019-04-27T01:33:10.442Z,20.20
2019-04-27T01:35:39.151Z,20.65
2019-04-27T01:38:06.453Z,20.32
2019-04-27T01:40:33.750Z,20.37
2019-04-27T01:43:01.066Z,20.68
2019-04-27T01:45:29.020Z,20.30
2019-04-27T01:47:56.383Z,19.77
2019-04-27T01:50:23.690Z,19.65
2019-04-27T01:52:51.020Z,20.90
2019-04-27T01:55:18.839Z,22.20
2019-04-27T01:57:46.206Z,20.43
2019-04-27T02:00:49.541Z,20.37
2019-04-27T02:03:21.218Z,20.43
2019-04-27T02:05:56.233Z,20.95
2019-04-27T02:08:23.521Z,20.08
2019-04-27T02:10:51.023Z,18.50
2019-04-27T02:13:18.902Z,19.82
2019-04-27T02:15:46.184Z,20.20
2019-04-27T02:18:13.478Z,20.80
2019-04-27T02:20:40.805Z,20.45
2019-04-27T02:23:09.136Z,20.62
2019-04-27T02:25:36.491Z,19.30
2019-04-27T02:28:05.455Z,19.62
2019-04-27T02:30:34.406Z,20.95
2019-04-27T02:33:20.291Z,19.90
2019-04-27T02:35:50.538Z,18.77
2019-04-27T02:38:16.715Z,21.02
2019-04-27T02:40:49.598Z,18.50
2019-04-27T02:43:19.401Z,19.32
2019-04-27T02:45:46.801Z,19.80
2019-04-27T02:48:14.110Z,21.57
2019-04-27T02:50:41.886Z,21.35
2019-04-27T02:53:11.049Z,19.55
2019-04-27T02:55:39.711Z,20.75
2019-04-27T02:58:07.152Z,20.80
2019-04-27T03:00:34.476Z,20.62
2019-04-27T03:03:03.425Z,20.10
2019-04-27T03:05:30.724Z,21.90
2019-04-27T03:07:59.706Z,20.25
2019-04-27T03:10:29.733Z,21.48
2019-04-27T03:13:00.121Z,21.15
2019-04-27T03:15:44.215Z,20.92
2019-04-27T03:18:13.147Z,21.55
2019-04-27T03:20:45.040Z,23.10
2019-04-27T03:23:12.745Z,21.87
2019-04-27T03:25:49.880Z,22.73
2019-04-27T03:28:16.422Z,22.37
2019-04-27T03:30:43.822Z,21.45
2019-04-27T03:33:12.092Z,21.65
2019-04-27T03:35:43.008Z,22.27
2019-04-27T03:38:12.131Z,22.22
2019-04-27T03:40:40.158Z,22.13
2019-04-27T03:43:09.386Z,20.50
2019-04-27T03:45:39.777Z,22.27
2019-04-27T03:48:06.008Z,22.32
2019-04-27T03:50:34.965Z,21.35
2019-04-27T03:53:23.177Z,22.13
2019-04-27T03:55:54.998Z,21.97
2019-04-27T03:58:39.565Z,21.87
2019-04-27T04:01:07.102Z,21.27
2019-04-27T04:03:34.424Z,21.62
2019-04-27T04:06:01.711Z,20.60
2019-04-27T04:08:30.754Z,22.15
2019-04-27T04:11:02.338Z,20.62
2019-04-27T04:13:31.271Z,21.33
2019-04-27T04:16:07.829Z,21.52
2019-04-27T04:18:52.875Z,20.32
2019-04-27T04:21:20.162Z,21.30
2019-04-27T04:23:49.383Z,21.77
2019-04-27T04:26:16.405Z,21.25
2019-04-27T04:28:43.713Z,21.52
2019-04-27T04:31:13.790Z,21.15
2019-04-27T04:33:40.465Z,20.23
2019-04-27T04:36:10.039Z,19.70
2019-04-27T04:38:36.737Z,19.10
2019-04-27T04:41:05.706Z,20.35
2019-04-27T04:43:34.647Z,17.90
2019-04-27T04:46:04.963Z,20.55
2019-04-27T04:48:32.407Z,19.77
2019-04-27T04:51:00.048Z,19.87
2019-04-27T04:53:29.306Z,18.40
2019-04-27T04:55:56.488Z,20.45
2019-04-27T04:58:23.783Z,18.67
2019-04-27T05:00:51.120Z,17.95
2019-04-27T05:03:21.447Z,17.52
2019-04-27T05:05:47.346Z,17.45
2019-04-27T05:08:14.657Z,19.02
2019-04-27T05:10:41.971Z,17.35
2019-04-27T05:13:09.489Z,17.32
2019-04-27T05:15:36.799Z,17.95
2019-04-27T05:18:04.101Z,18.12
2019-04-27T05:20:39.678Z,18.82
2019-04-27T05:23:07.054Z,18.42
2019-04-27T05:25:34.391Z,17.90
2019-04-27T05:28:01.674Z,18.92
2019-04-27T05:30:28.968Z,17.98
2019-04-27T05:32:56.320Z,18.55
2019-04-27T05:35:23.604Z,17.77
2019-04-27T05:37:50.925Z,18.95
2019-04-27T05:40:18.969Z,16.45
2019-04-27T05:42:48.820Z,17.35
2019-04-27T05:45:22.814Z,17.45
2019-04-27T05:47:52.081Z,17.55
2019-04-27T05:50:21.951Z,19.07
2019-04-27T05:52:49.686Z,16.67
2019-04-27T05:55:17.085Z,16.27
2019-04-27T05:57:44.415Z,16.40
2019-04-27T06:00:13.491Z,14.95
2019-04-27T06:02:40.764Z,15.03
2019-04-27T06:05:08.845Z,14.18
2019-04-27T06:07:36.202Z,14.45
2019-04-27T06:10:03.903Z,12.98
2019-04-27T06:12:31.209Z,15.35
2019-04-27T06:15:00.004Z,14.75
2019-04-27T06:17:27.413Z,13.50
2019-04-27T06:19:54.743Z,15.78
2019-04-27T06:22:22.072Z,14.13
2019-04-27T06:24:54.344Z,14.40
2019-04-27T06:27:18.645Z,13.95
2019-04-27T06:29:48.993Z,14.93
2019-04-27T06:32:16.386Z,15.72
2019-04-27T06:34:43.686Z,13.70
2019-04-27T06:37:11.014Z,13.78
2019-04-27T06:39:38.659Z,14.63
2019-04-27T06:42:15.997Z,10.63
2019-04-27T06:44:34.983Z,11.22
2019-04-27T06:47:02.291Z,12.25
2019-04-27T06:49:29.585Z,11.22
2019-04-27T06:51:58.542Z,11.05
2019-04-27T06:54:25.991Z,11.80
2019-04-27T06:56:53.318Z,12.07
2019-04-27T06:59:20.620Z,14.13
2019-04-27T07:01:48.869Z,9.85
2019-04-27T07:04:16.234Z,9.85
2019-04-27T07:06:53.249Z,9.65
2019-04-27T07:09:12.649Z,10.00
2019-04-27T07:11:39.967Z,10.18
2019-04-27T07:14:07.325Z,8.98
2019-04-27T07:16:34.627Z,9.70
2019-04-27T07:19:01.946Z,11.73
2019-04-27T07:21:29.254Z,8.95
2019-04-27T07:23:56.537Z,9.95
2019-04-27T07:26:24.224Z,9.83
2019-04-27T07:28:51.538Z,9.33
2019-04-27T07:31:19.276Z,9.68
2019-04-27T07:33:46.647Z,9.35
2019-04-27T07:36:13.961Z,8.75
2019-04-27T07:38:41.247Z,8.40
2019-04-27T07:41:09.665Z,8.93
2019-04-27T07:43:41.527Z,8.85
2019-04-27T07:46:08.957Z,7.25
2019-04-27T07:48:36.229Z,7.85
2019-04-27T07:51:03.594Z,8.98
2019-04-27T07:53:30.877Z,8.28
2019-04-27T07:55:59.272Z,7.12
2019-04-27T07:58:26.583Z,8.50
2019-04-27T08:00:53.951Z,8.53
2019-04-27T08:03:21.261Z,9.05
2019-04-27T08:05:49.124Z,8.03
2019-04-27T08:08:16.478Z,7.42
2019-04-27T08:10:43.767Z,7.35
2019-04-27T08:13:11.051Z,7.03
2019-04-27T08:15:39.581Z,7.75
2019-04-27T08:18:08.794Z,7.75
2019-04-27T08:20:35.910Z,7.75
2019-04-27T08:23:03.234Z,6.67
2019-04-27T08:25:30.854Z,7.45
2019-04-27T08:28:05.399Z,6.47
2019-04-27T08:30:52.370Z,6.05
2019-04-27T08:33:19.658Z,5.80
2019-04-27T08:35:46.939Z,6.30
2019-04-27T08:38:14.248Z,6.25
2019-04-27T08:40:41.533Z,6.37
2019-04-27T08:43:09.314Z,6.87
2019-04-27T08:45:36.653Z,6.00
2019-04-27T08:48:03.950Z,5.28
2019-04-27T08:50:31.271Z,5.35
2019-04-27T08:52:58.557Z,5.40
2019-04-27T08:55:25.841Z,4.60
2019-04-27T08:57:53.156Z,4.40
2019-04-27T09:00:20.442Z,4.90
2019-04-27T09:02:50.017Z,4.90
2019-04-27T09:05:19.309Z,4.28
2019-04-27T09:07:51.856Z,5.10
2019-04-27T09:10:23.314Z,5.22
2019-04-27T09:12:53.613Z,7.20
2019-04-27T09:15:39.157Z,4.87
2019-04-27T09:18:06.509Z,3.98
2019-04-27T09:20:38.988Z,5.30
2019-04-27T09:23:06.367Z,4.58
2019-04-27T09:25:33.651Z,5.25
2019-04-27T09:28:00.939Z,4.47
2019-04-27T09:30:29.768Z,4.05
2019-04-27T09:32:57.163Z,3.58
2019-04-27T09:35:26.350Z,3.30
2019-04-27T09:37:53.392Z,3.92
2019-04-27T09:40:20.698Z,3.65
2019-04-27T09:42:48.019Z,5.17
2019-04-27T09:45:15.897Z,4.20
2019-04-27T09:47:43.197Z,3.20
2019-04-27T09:50:10.519Z,3.27
2019-04-27T09:52:37.810Z,4.12
2019-04-27T09:55:06.705Z,7.67
2019-04-27T09:57:34.421Z,3.02
2019-04-27T10:00:01.725Z,9.40
2019-04-27T10:02:29.056Z,9.90
2019-04-27T10:04:56.621Z,3.95
2019-04-27T10:07:23.922Z,3.20
2019-04-27T10:09:51.225Z,3.52
2019-04-27T10:12:18.524Z,4.15
2019-04-27T10:14:47.597Z,2.72
2019-04-27T10:17:14.757Z,4.03
2019-04-27T10:19:42.046Z,6.20
2019-04-27T10:22:09.462Z,3.25
2019-04-27T10:24:36.711Z,2.45
2019-04-27T10:27:05.523Z,3.52
2019-04-27T10:29:35.561Z,1.60
2019-04-27T10:32:02.908Z,2.40
2019-04-27T10:34:30.220Z,1.75
2019-04-27T10:36:57.506Z,2.55
2019-04-27T10:39:25.749Z,3.25
2019-04-27T10:41:53.758Z,1.67
2019-04-27T10:44:21.046Z,1.40
2019-04-27T10:46:48.334Z,5.60
2019-04-27T10:49:15.971Z,5.42
2019-04-27T10:51:43.234Z,2.60
2019-04-27T10:54:10.752Z,1.77
2019-04-27T10:56:38.014Z,1.35
2019-04-27T10:59:06.561Z,1.20
2019-04-27T11:01:35.954Z,1.37
2019-04-27T11:04:11.840Z,1.60
2019-04-27T11:06:46.930Z,1.05
2019-04-27T11:09:16.182Z,3.45
2019-04-27T11:11:43.155Z,1.10
2019-04-27T11:14:10.457Z,1.80
2019-04-27T11:16:37.891Z,5.78
2019-04-27T11:19:06.561Z,1.20
2019-04-27T11:21:33.952Z,7.05
2019-04-27T11:24:01.270Z,5.40
2019-04-27T11:26:28.554Z,1.45
2019-04-27T11:28:55.841Z,4.85
2019-04-27T11:31:23.170Z,8.95
2019-04-27T11:33:50.455Z,0.60
2019-04-27T11:36:19.390Z,0.70
2019-04-27T11:38:48.330Z,0.85
2019-04-27T11:41:16.219Z,0.75
2019-04-27T11:43:43.493Z,0.62
2019-04-27T11:46:10.776Z,0.72
2019-04-27T11:48:38.093Z,1.27
2019-04-27T11:51:06.971Z,0.70
2019-04-27T11:53:35.890Z,1.20
2019-04-27T11:56:03.228Z,0.75
2019-04-27T11:58:30.519Z,0.93
2019-04-27T12:00:57.821Z,1.00
2019-04-27T12:03:25.115Z,0.90
2019-04-27T12:05:52.404Z,0.90
2019-04-27T12:08:19.723Z,1.20
2019-04-27T12:10:48.348Z,1.00
2019-04-27T12:13:15.994Z,1.70
2019-04-27T12:15:43.297Z,1.15
2019-04-27T12:18:10.618Z,1.10
2019-04-27T12:20:37.911Z,0.90
2019-04-27T12:23:06.582Z,0.90
2019-04-27T12:25:37.051Z,0.80
2019-04-27T12:28:04.593Z,1.30
2019-04-27T12:30:33.542Z,2.08
2019-04-27T12:33:01.003Z,1.25
2019-04-27T12:35:28.289Z,1.60
2019-04-27T12:37:56.113Z,1.57
2019-04-27T12:40:23.390Z,1.55
2019-04-27T12:42:50.711Z,2.35
2019-04-27T12:45:18.293Z,2.25
2019-04-27T12:47:46.434Z,1.77
2019-04-27T12:50:13.985Z,2.00
2019-04-27T12:52:42.847Z,2.95
2019-04-27T12:55:28.150Z,2.80
2019-04-27T12:57:57.071Z,2.80
2019-04-27T13:00:28.997Z,2.55
2019-04-27T13:02:57.831Z,3.02
2019-04-27T13:05:25.843Z,2.50
2019-04-27T13:07:53.187Z,2.50
2019-04-27T13:10:20.567Z,2.58
2019-04-27T13:12:47.869Z,2.27
2019-04-27T13:15:15.538Z,2.40
2019-04-27T13:17:42.838Z,2.20
2019-04-27T13:20:10.155Z,2.05
2019-04-27T13:22:37.434Z,2.30
2019-04-27T13:25:08.093Z,1.60
2019-04-27T13:27:36.763Z,2.00
2019-04-27T13:30:07.329Z,2.27
2019-04-27T13:32:34.278Z,2.00
2019-04-27T13:35:01.586Z,1.62
2019-04-27T13:37:33.318Z,2.22
2019-04-27T13:40:07.051Z,2.00
2019-04-27T13:42:31.191Z,1.95
2019-04-27T13:45:00.151Z,2.77
2019-04-27T13:47:32.046Z,2.20
2019-04-27T13:50:03.911Z,2.30
2019-04-27T13:52:31.195Z,2.00
2019-04-27T13:54:58.484Z,1.50
2019-04-27T13:57:26.582Z,1.90
2019-04-27T13:59:53.884Z,1.65
2019-04-27T14:02:21.518Z,1.90
2019-04-27T14:04:50.150Z,1.47
2019-04-27T14:07:17.432Z,1.65
2019-04-27T14:09:44.747Z,2.10
2019-04-27T14:12:13.695Z,1.92
2019-04-27T14:14:41.007Z,1.90
2019-04-27T14:17:09.754Z,5.08
2019-04-27T14:19:37.218Z,2.02
2019-04-27T14:22:04.526Z,2.20
2019-04-27T14:24:39.256Z,3.35
2019-04-27T14:27:06.706Z,3.35
2019-04-27T14:29:34.025Z,2.65
2019-04-27T14:32:01.318Z,3.62
2019-04-27T14:34:28.631Z,3.25
2019-04-27T14:36:55.932Z,3.10
2019-04-27T14:39:23.402Z,3.20
2019-04-27T14:41:50.762Z,4.60
2019-04-27T14:44:18.700Z,4.40
2019-04-27T14:46:46.242Z,3.52
2019-04-27T14:49:13.528Z,5.20
2019-04-27T14:51:40.823Z,4.55
2019-04-27T14:54:09.277Z,4.47
2019-04-27T14:56:38.581Z,4.08
2019-04-27T14:59:05.578Z,4.45
2019-04-27T15:01:32.903Z,3.92
2019-04-27T15:04:00.247Z,3.85
2019-04-27T15:06:27.507Z,2.77
2019-04-27T15:08:55.773Z,3.70
2019-04-27T15:11:23.972Z,3.90
2019-04-27T15:13:53.320Z,4.58
2019-04-27T15:16:20.250Z,3.52
2019-04-27T15:18:51.720Z,2.80
2019-04-27T15:21:20.278Z,2.42
2019-04-27T15:23:48.415Z,2.65
2019-04-27T15:26:21.841Z,3.10
2019-04-27T15:28:49.419Z,3.10
2019-04-27T15:31:27.010Z,2.60
2019-04-27T15:34:02.047Z,3.00
2019-04-27T15:36:33.912Z,3.85
2019-04-27T15:39:22.578Z,3.27
2019-04-27T15:41:54.389Z,3.72
2019-04-27T15:44:21.755Z,2.50
2019-04-27T15:46:49.037Z,3.20
2019-04-27T15:49:17.915Z,3.95
2019-04-27T15:51:45.367Z,3.12
2019-04-27T15:54:12.650Z,2.40
2019-04-27T15:56:40.015Z,2.90
2019-04-27T15:59:08.693Z,2.65
2019-04-27T16:01:37.128Z,1.95
2019-04-27T16:04:07.662Z,1.85
2019-04-27T16:06:33.950Z,1.70
2019-04-27T16:09:01.266Z,1.47
2019-04-27T16:11:28.706Z,1.45
2019-04-27T16:13:56.096Z,2.25
2019-04-27T16:16:24.492Z,1.80
2019-04-27T16:18:52.341Z,2.35
2019-04-27T16:21:20.102Z,1.90
2019-04-27T16:23:48.071Z,1.40
2019-04-27T16:26:15.440Z,2.58
2019-04-27T16:28:43.038Z,2.10
2019-04-27T16:31:11.754Z,2.62
2019-04-27T16:33:39.182Z,3.17
2019-04-27T16:36:07.230Z,2.25
2019-04-27T16:38:36.285Z,2.85
2019-04-27T16:41:03.631Z,1.90
2019-04-27T16:43:32.963Z,2.12
2019-04-27T16:46:04.330Z,1.80
2019-04-27T16:48:34.439Z,2.02
2019-04-27T16:50:59.250Z,2.85
2019-04-27T16:53:30.110Z,3.15
2019-04-27T16:56:01.610Z,3.25
2019-04-27T16:58:26.203Z,4.05
2019-04-27T17:00:53.559Z,3.98
2019-04-27T17:03:20.891Z,3.75
2019-04-27T17:05:48.554Z,5.03
2019-04-27T17:08:22.242Z,4.95
2019-04-27T17:10:44.835Z,5.37
2019-04-27T17:13:14.652Z,5.30
2019-04-27T17:15:59.847Z,4.30
2019-04-27T17:18:45.144Z,6.15
2019-04-27T17:21:18.814Z,5.20
2019-04-27T17:23:41.449Z,5.50
2019-04-27T17:26:20.555Z,4.35
2019-04-27T17:28:50.499Z,11.43
2019-04-27T17:31:21.094Z,5.28
2019-04-27T17:34:02.513Z,5.00
2019-04-27T17:36:29.826Z,11.10
2019-04-27T17:38:58.336Z,43.50
2019-04-27T17:41:25.714Z,18.90
2019-04-27T17:43:53.006Z,7.70
2019-04-27T17:46:21.991Z,6.95
2019-04-27T17:48:49.399Z,6.90
2019-04-27T17:51:16.682Z,9.45
2019-04-27T17:53:44.002Z,17.82
2019-04-27T17:56:11.295Z,12.58
2019-04-27T17:58:39.647Z,5.03
2019-04-27T18:01:09.306Z,5.85
2019-04-27T18:03:36.597Z,5.55
2019-04-27T18:06:04.049Z,5.15
2019-04-27T18:08:31.348Z,5.15
2019-04-27T18:11:03.048Z,4.80
2019-04-27T18:13:28.862Z,4.62
2019-04-27T18:15:56.202Z,5.42
2019-04-27T18:18:40.379Z,5.35
2019-04-27T18:21:07.797Z,5.95
2019-04-27T18:23:36.741Z,5.58
2019-04-27T18:26:19.210Z,6.70
2019-04-27T18:28:52.152Z,6.97
2019-04-27T18:31:17.886Z,7.25
2019-04-27T18:33:45.299Z,6.97
2019-04-27T18:36:14.351Z,5.80
2019-04-27T18:38:41.548Z,5.92
2019-04-27T18:41:11.614Z,7.55
2019-04-27T18:43:38.586Z,7.15
2019-04-27T18:46:06.750Z,6.30
2019-04-27T18:48:44.915Z,6.12
2019-04-27T18:51:30.292Z,7.50
2019-04-27T18:53:59.746Z,6.47
2019-04-27T18:56:28.835Z,7.08
2019-04-27T18:58:55.487Z,7.10
2019-04-27T19:01:22.812Z,6.55
2019-04-27T19:03:50.108Z,7.05
2019-04-27T19:06:18.834Z,5.35
2019-04-27T19:08:46.130Z,6.53
2019-04-27T19:11:13.435Z,6.40
2019-04-27T19:13:40.715Z,6.28
2019-04-27T19:16:08.296Z,6.30
2019-04-27T19:18:35.632Z,5.05
2019-04-27T19:21:02.926Z,5.87
2019-04-27T19:23:30.234Z,5.40
2019-04-27T19:25:59.187Z,6.03
2019-04-27T19:28:28.613Z,6.62
2019-04-27T19:31:04.452Z,7.35
2019-04-27T19:33:31.730Z,7.67
2019-04-27T19:35:59.009Z,7.05
2019-04-27T19:38:26.323Z,6.50
2019-04-27T19:40:53.618Z,7.53
2019-04-27T19:43:20.886Z,6.35
2019-04-27T19:45:48.282Z,5.97
2019-04-27T19:48:15.586Z,6.25
2019-04-27T19:50:42.906Z,6.25
2019-04-27T19:53:10.205Z,6.87
2019-04-27T19:55:38.937Z,6.35
2019-04-27T19:58:08.038Z,11.75
2019-04-27T20:00:53.102Z,14.33
2019-04-27T20:03:22.046Z,6.62
2019-04-27T20:05:49.363Z,5.40
2019-04-27T20:08:21.033Z,5.30
2019-04-27T20:10:48.327Z,5.50
2019-04-27T20:13:15.646Z,4.87
2019-04-27T20:15:43.067Z,4.65
2019-04-27T20:18:10.845Z,4.75
2019-04-27T20:20:38.242Z,5.20
2019-04-27T20:23:05.546Z,5.20
2019-04-27T20:25:32.838Z,5.12
2019-04-27T20:28:00.870Z,5.25
2019-04-27T20:30:28.238Z,5.00
2019-04-27T20:32:55.553Z,5.83
2019-04-27T20:35:22.862Z,5.03
2019-04-27T20:37:51.717Z,5.42
2019-04-27T20:40:19.162Z,6.80
2019-04-27T20:42:46.450Z,6.65
2019-04-27T20:45:13.770Z,5.55
2019-04-27T20:47:41.055Z,4.83
2019-04-27T20:50:08.341Z,5.62
2019-04-27T20:52:43.009Z,6.03
2019-04-27T20:55:11.263Z,5.90
2019-04-27T20:57:38.548Z,6.83
2019-04-27T21:00:06.489Z,5.85
2019-04-27T21:02:35.423Z,6.75
2019-04-27T21:05:13.260Z,8.00
2019-04-27T21:07:42.185Z,7.67
2019-04-27T21:10:09.465Z,6.20
2019-04-27T21:12:36.779Z,5.30
2019-04-27T21:15:04.528Z,5.60
2019-04-27T21:17:31.923Z,5.65
2019-04-27T21:19:59.214Z,6.97
2019-04-27T21:22:26.532Z,6.03
2019-04-27T21:24:53.844Z,5.37
2019-04-27T21:27:21.568Z,6.17
2019-04-27T21:29:48.933Z,5.78
2019-04-27T21:32:16.250Z,6.45
2019-04-27T21:34:43.534Z,6.35
2019-04-27T21:37:11.105Z,5.30
2019-04-27T21:39:38.435Z,5.85
2019-04-27T21:42:05.718Z,5.42
2019-04-27T21:44:33.006Z,7.22
2019-04-27T21:47:00.787Z,5.92
2019-04-27T21:49:28.110Z,5.60
2019-04-27T21:52:12.686Z,5.92
2019-04-27T21:54:41.142Z,5.47
2019-04-27T21:57:08.498Z,5.90
2019-04-27T21:59:35.802Z,5.42
2019-04-27T22:02:04.967Z,5.90
2019-04-27T22:04:32.246Z,6.45
2019-04-27T22:07:01.247Z,6.50
2019-04-27T22:09:28.662Z,5.72
2019-04-27T22:11:55.956Z,5.33
2019-04-27T22:14:23.275Z,5.70
2019-04-27T22:16:51.876Z,6.40
2019-04-27T22:19:20.471Z,6.10
2019-04-27T22:21:48.208Z,6.15
2019-04-27T22:24:17.154Z,6.42
2019-04-27T22:26:44.443Z,6.33
2019-04-27T22:29:12.169Z,8.58
2019-04-27T22:31:41.388Z,6.97
2019-04-27T22:34:08.391Z,7.05
2019-04-27T22:36:35.674Z,6.85
2019-04-27T22:39:04.618Z,8.40
2019-04-27T22:41:33.542Z,7.03
2019-04-27T22:44:05.298Z,7.53
2019-04-27T22:46:34.221Z,9.03
2019-04-27T22:49:01.887Z,7.45
2019-04-27T22:51:29.235Z,7.70
2019-04-27T22:53:56.519Z,7.70
2019-04-27T22:56:23.835Z,8.53
2019-04-27T22:59:03.833Z,7.35
2019-04-27T23:01:37.776Z,6.67
2019-04-27T23:04:09.538Z,9.68
2019-04-27T23:06:36.826Z,7.70
2019-04-27T23:09:04.984Z,9.25
2019-04-27T23:11:32.294Z,7.45
2019-04-27T23:14:01.006Z,9.95
2019-04-27T23:16:30.857Z,6.53
2019-04-27T23:18:58.122Z,7.83
2019-04-27T23:21:25.430Z,5.90
2019-04-27T23:23:52.742Z,5.97
2019-04-27T23:26:21.094Z,6.08
2019-04-27T23:28:48.452Z,7.45
2019-04-27T23:31:26.090Z,7.08
2019-04-27T23:33:53.398Z,6.17
2019-04-27T23:36:21.598Z,7.05
2019-04-27T23:38:50.736Z,5.85
2019-04-27T23:41:17.942Z,7.85
2019-04-27T23:43:45.227Z,6.60
2019-04-27T23:46:12.513Z,7.92
2019-04-27T23:48:41.855Z,6.85
2019-04-27T23:51:13.359Z,6.70
2019-04-27T23:53:41.733Z,6.95
2019-04-27T23:56:09.160Z,6.58
2019-04-27T23:58:36.463Z,10.63
